createdAt,value
2017-11-04T00:01:16.547Z,39.60
2017-11-04T00:03:45.958Z,38.23
2017-11-04T00:06:15.466Z,42.23
2017-11-04T00:08:44.774Z,38.13
2017-11-04T00:11:14.053Z,41.53
2017-11-04T00:13:43.366Z,35.80
2017-11-04T00:16:12.770Z,39.90
2017-11-04T00:18:42.148Z,42.37
2017-11-04T00:21:11.398Z,35.70
2017-11-04T00:23:40.662Z,48.67
2017-11-04T00:26:09.906Z,43.83
2017-11-04T00:28:39.354Z,43.03
2017-11-04T00:31:08.607Z,45.37
2017-11-04T00:33:37.872Z,47.70
2017-11-04T00:36:07.311Z,45.70
2017-11-04T00:38:37.318Z,46.33
2017-11-04T00:41:06.562Z,39.57
2017-11-04T00:43:35.814Z,43.10
2017-11-04T00:46:05.938Z,46.90
2017-11-04T00:48:35.961Z,57.03
2017-11-04T00:51:05.198Z,42.87
2017-11-04T00:53:34.453Z,34.57
2017-11-04T00:56:04.573Z,40.13
2017-11-04T00:58:34.570Z,41.30
2017-11-04T01:01:03.821Z,44.20
2017-11-04T01:03:33.088Z,38.47
2017-11-04T01:06:02.331Z,35.80
2017-11-04T01:08:31.570Z,45.80
2017-11-04T01:11:00.837Z,46.40
2017-11-04T01:13:31.016Z,50.57
2017-11-04T01:16:00.287Z,46.60
2017-11-04T01:18:29.566Z,43.03
2017-11-04T01:20:58.794Z,62.73
2017-11-04T01:23:28.050Z,49.70
2017-11-04T01:25:57.358Z,47.17
2017-11-04T01:28:26.707Z,49.53
2017-11-04T01:30:55.961Z,49.40
2017-11-04T01:33:25.340Z,44.93
2017-11-04T01:35:54.817Z,46.07
2017-11-04T01:38:24.062Z,57.47
2017-11-04T01:40:53.318Z,44.37
2017-11-04T01:43:22.575Z,45.97
2017-11-04T01:45:51.863Z,50.60
2017-11-04T01:48:20.486Z,57.93
2017-11-04T01:50:49.814Z,51.07
2017-11-04T01:53:19.039Z,57.40
2017-11-04T01:55:48.311Z,54.93
2017-11-04T01:58:17.564Z,53.53
2017-11-04T02:00:46.868Z,46.27
2017-11-04T02:03:16.206Z,45.73
2017-11-04T02:05:45.467Z,55.03
2017-11-04T02:08:14.755Z,45.23
2017-11-04T02:10:44.761Z,64.53
2017-11-04T02:13:14.024Z,59.47
2017-11-04T02:15:43.279Z,50.77
2017-11-04T02:18:12.528Z,60.83
2017-11-04T02:20:42.049Z,57.20
2017-11-04T02:23:12.110Z,60.00
2017-11-04T02:25:41.378Z,53.93
2017-11-04T02:28:10.734Z,68.30
2017-11-04T02:30:40.078Z,45.83
2017-11-04T02:33:10.114Z,46.60
2017-11-04T02:35:39.367Z,53.70
2017-11-04T02:38:08.628Z,55.40
2017-11-04T02:40:38.539Z,50.20
2017-11-04T02:43:07.932Z,57.10
2017-11-04T02:45:37.148Z,56.47
2017-11-04T02:48:06.464Z,60.10
2017-11-04T02:50:35.697Z,50.33
2017-11-04T02:53:05.010Z,50.10
2017-11-04T02:55:35.066Z,49.43
2017-11-04T02:58:04.340Z,51.57
2017-11-04T03:00:33.739Z,52.33
2017-11-04T03:03:03.858Z,53.20
2017-11-04T03:05:33.863Z,56.90
2017-11-04T03:08:03.282Z,58.83
2017-11-04T03:10:32.611Z,54.57
2017-11-04T03:13:02.108Z,66.70
2017-11-04T03:15:32.142Z,59.00
2017-11-04T03:18:01.728Z,64.23
2017-11-04T03:20:31.763Z,57.77
2017-11-04T03:23:00.999Z,57.83
2017-11-04T03:25:30.257Z,59.07
2017-11-04T03:28:00.388Z,49.53
2017-11-04T03:30:29.631Z,51.97
2017-11-04T03:32:58.902Z,53.03
2017-11-04T03:35:28.181Z,60.97
2017-11-04T03:37:57.769Z,60.30
2017-11-04T03:40:27.782Z,58.80
2017-11-04T03:42:57.054Z,55.83
2017-11-04T03:45:26.288Z,56.13
2017-11-04T03:47:56.329Z,53.03
2017-11-04T03:50:25.563Z,53.57
2017-11-04T03:52:54.802Z,63.50
2017-11-04T03:55:24.071Z,63.67
2017-11-04T03:57:53.399Z,56.90
2017-11-04T04:00:22.717Z,51.90
2017-11-04T04:02:52.746Z,45.97
2017-11-04T04:05:22.059Z,60.23
2017-11-04T04:07:51.534Z,44.17
2017-11-04T04:10:20.794Z,52.83
2017-11-04T04:12:50.047Z,54.07
2017-11-04T04:15:20.159Z,65.73
2017-11-04T04:17:49.463Z,58.70
2017-11-04T04:20:19.633Z,67.97
2017-11-04T04:22:48.885Z,62.57
2017-11-04T04:25:18.899Z,63.30
2017-11-04T04:27:48.170Z,57.80
2017-11-04T04:30:17.435Z,56.67
2017-11-04T04:32:46.698Z,51.57
2017-11-04T04:35:16.035Z,59.17
2017-11-04T04:37:45.346Z,57.53
2017-11-04T04:40:14.630Z,57.57
2017-11-04T04:42:43.875Z,57.07
2017-11-04T04:45:13.135Z,50.80
2017-11-04T04:47:42.394Z,50.00
2017-11-04T04:50:11.638Z,52.67
2017-11-04T04:52:40.875Z,58.57
2017-11-04T04:55:10.164Z,58.20
2017-11-04T04:57:39.420Z,50.50
2017-11-04T05:00:08.742Z,59.10
2017-11-04T05:02:38.114Z,51.03
2017-11-04T05:05:08.135Z,53.10
2017-11-04T05:07:37.534Z,58.03
2017-11-04T05:10:07.665Z,47.57
2017-11-04T05:12:37.771Z,56.20
2017-11-04T05:15:07.783Z,52.33
2017-11-04T05:17:37.186Z,54.33
2017-11-04T05:20:06.488Z,54.03
2017-11-04T05:22:35.750Z,43.37
2017-11-04T05:25:05.011Z,52.93
2017-11-04T05:27:34.245Z,42.60
2017-11-04T05:30:03.513Z,49.87
2017-11-04T05:32:32.994Z,48.20
2017-11-04T05:35:02.238Z,54.50
2017-11-04T05:37:31.603Z,49.87
2017-11-04T05:40:01.005Z,59.10
2017-11-04T05:42:30.278Z,51.90
2017-11-04T05:44:59.562Z,54.40
2017-11-04T05:47:28.817Z,49.50
2017-11-04T05:49:58.823Z,53.23
2017-11-04T05:52:28.075Z,48.70
2017-11-04T05:54:57.328Z,56.17
2017-11-04T05:57:27.437Z,51.50
2017-11-04T05:59:56.703Z,57.03
2017-11-04T06:02:26.014Z,46.23
2017-11-04T06:04:55.255Z,53.63
2017-11-04T06:07:24.686Z,48.70
2017-11-04T06:09:53.961Z,47.03
2017-11-04T06:12:23.222Z,51.63
2017-11-04T06:14:52.663Z,49.60
2017-11-04T06:17:22.056Z,49.23
2017-11-04T06:19:52.290Z,53.40
2017-11-04T06:22:22.287Z,65.47
2017-11-04T06:24:51.542Z,56.67
2017-11-04T06:27:20.786Z,50.03
2017-11-04T06:29:50.211Z,50.90
2017-11-04T06:32:19.490Z,64.63
2017-11-04T06:34:48.739Z,56.57
2017-11-04T06:37:18.090Z,55.10
2017-11-04T06:39:48.472Z,58.37
2017-11-04T06:42:17.881Z,66.67
2017-11-04T06:44:48.204Z,58.13
2017-11-04T06:47:17.592Z,80.50
2017-11-04T06:49:46.878Z,61.93
2017-11-04T06:52:16.923Z,62.10
2017-11-04T06:54:46.184Z,69.70
2017-11-04T06:57:15.493Z,59.20
2017-11-04T06:59:44.746Z,70.53
2017-11-04T07:02:14.021Z,64.13
2017-11-04T07:04:43.298Z,69.47
2017-11-04T07:07:13.339Z,67.13
2017-11-04T07:09:42.598Z,68.13
2017-11-04T07:12:12.012Z,53.63
2017-11-04T07:14:41.352Z,67.30
2017-11-04T07:17:10.604Z,64.13
2017-11-04T07:19:39.890Z,65.43
2017-11-04T07:22:09.143Z,68.03
2017-11-04T07:24:38.498Z,51.90
2017-11-04T07:27:07.826Z,68.87
2017-11-04T07:29:38.146Z,87.90
2017-11-04T07:32:07.423Z,76.43
2017-11-04T07:34:36.954Z,72.60
2017-11-04T07:37:06.238Z,80.78
2017-11-04T07:39:35.622Z,60.20
2017-11-04T07:42:04.900Z,63.40
2017-11-04T07:44:34.150Z,58.83
2017-11-04T07:47:03.420Z,53.40
2017-11-04T07:49:33.314Z,53.40
2017-11-04T07:52:03.682Z,55.60
2017-11-04T07:54:32.942Z,60.27
2017-11-04T07:57:03.055Z,66.60
2017-11-04T07:59:33.202Z,60.53
2017-11-04T08:02:02.474Z,56.37
2017-11-04T08:04:31.738Z,58.37
2017-11-04T08:07:01.015Z,59.57
2017-11-04T08:09:30.265Z,65.50
2017-11-04T08:11:59.657Z,56.10
2017-11-04T08:14:28.931Z,55.30
2017-11-04T08:16:58.403Z,50.77
2017-11-04T08:19:28.531Z,56.93
2017-11-04T08:21:57.786Z,52.83
2017-11-04T08:24:27.038Z,68.20
2017-11-04T08:26:56.362Z,50.23
2017-11-04T08:29:26.002Z,47.90
2017-11-04T08:31:55.258Z,63.63
2017-11-04T08:34:25.375Z,57.53
2017-11-04T08:36:57.484Z,56.83
2017-11-04T08:39:26.746Z,53.00
2017-11-04T08:41:56.013Z,55.07
2017-11-04T08:44:25.365Z,54.33
2017-11-04T08:46:54.575Z,65.00
2017-11-04T08:49:23.882Z,70.33
2017-11-04T08:51:53.130Z,57.63
2017-11-04T08:54:22.398Z,54.37
2017-11-04T08:56:51.674Z,54.60
2017-11-04T08:59:20.922Z,57.70
2017-11-04T09:01:50.343Z,69.93
2017-11-04T09:04:20.390Z,66.20
2017-11-04T09:06:49.811Z,59.83
2017-11-04T09:09:19.830Z,50.87
2017-11-04T09:11:49.256Z,70.43
2017-11-04T09:14:18.523Z,75.77
2017-11-04T09:16:48.545Z,65.23
2017-11-04T09:19:17.816Z,68.40
2017-11-04T09:21:47.261Z,65.73
2017-11-04T09:24:17.352Z,63.57
2017-11-04T09:26:46.890Z,65.07
2017-11-04T09:29:16.149Z,66.00
2017-11-04T09:31:45.444Z,64.07
2017-11-04T09:34:14.723Z,67.43
2017-11-04T09:36:44.014Z,62.50
2017-11-04T09:39:13.304Z,77.10
2017-11-04T09:41:42.681Z,66.53
2017-11-04T09:44:12.785Z,77.43
2017-11-04T09:46:42.066Z,74.80
2017-11-04T09:49:11.328Z,74.27
2017-11-04T09:51:40.606Z,73.67
2017-11-04T09:54:10.623Z,83.90
2017-11-04T09:56:40.680Z,81.63
2017-11-04T09:59:09.926Z,70.97
2017-11-04T10:01:40.705Z,89.20
2017-11-04T10:04:10.150Z,79.60
2017-11-04T10:06:39.423Z,75.13
2017-11-04T10:09:08.717Z,78.73
2017-11-04T10:11:37.982Z,88.37
2017-11-04T10:14:08.020Z,73.37
2017-11-04T10:16:37.403Z,86.90
2017-11-04T10:19:07.458Z,80.43
2017-11-04T10:21:36.720Z,74.77
2017-11-04T10:24:06.088Z,94.70
2017-11-04T10:26:36.147Z,84.87
2017-11-04T10:29:05.412Z,74.83
2017-11-04T10:31:34.668Z,70.43
2017-11-04T10:34:03.951Z,82.47
2017-11-04T10:36:33.200Z,68.67
2017-11-04T10:39:02.467Z,69.53
2017-11-04T10:41:31.743Z,97.40
2017-11-04T10:44:01.031Z,74.13
2017-11-04T10:46:30.316Z,63.90
2017-11-04T10:48:59.716Z,84.03
2017-11-04T10:51:29.012Z,59.07
2017-11-04T10:53:59.038Z,81.83
2017-11-04T10:56:28.304Z,65.47
2017-11-04T10:58:57.852Z,85.33
2017-11-04T11:01:27.904Z,94.13
2017-11-04T11:03:57.163Z,74.53
2017-11-04T11:06:26.426Z,76.57
2017-11-04T11:08:55.687Z,74.90
2017-11-04T11:11:25.718Z,73.07
2017-11-04T11:13:55.277Z,84.00
2017-11-04T11:16:24.651Z,71.43
2017-11-04T11:18:53.918Z,74.13
2017-11-04T11:21:23.961Z,77.67
2017-11-04T11:23:53.235Z,79.83
2017-11-04T11:26:22.497Z,79.07
2017-11-04T11:28:51.757Z,71.80
2017-11-04T11:31:21.011Z,73.73
2017-11-04T11:33:50.306Z,76.10
2017-11-04T11:36:19.562Z,80.50
2017-11-04T11:38:49.036Z,73.10
2017-11-04T11:41:18.314Z,71.63
2017-11-04T11:43:48.503Z,67.10
2017-11-04T11:46:17.955Z,75.17
2017-11-04T11:48:47.251Z,66.80
2017-11-04T11:51:16.702Z,68.03
2017-11-04T11:53:45.956Z,73.47
2017-11-04T11:56:16.479Z,73.03
2017-11-04T11:58:46.630Z,83.30
2017-11-04T12:01:15.894Z,81.13
2017-11-04T12:03:45.189Z,68.23
2017-11-04T12:06:14.439Z,74.70
2017-11-04T12:08:43.837Z,76.33
2017-11-04T12:11:13.543Z,64.50
2017-11-04T12:13:43.037Z,75.17
2017-11-04T12:16:13.089Z,70.03
2017-11-04T12:18:42.335Z,76.50
2017-11-04T12:21:11.749Z,69.73
2017-11-04T12:23:41.818Z,72.40
2017-11-04T12:26:11.189Z,79.23
2017-11-04T12:28:41.418Z,67.70
2017-11-04T12:31:10.697Z,68.80
2017-11-04T12:33:39.936Z,70.87
2017-11-04T12:36:09.208Z,69.13
2017-11-04T12:38:39.243Z,76.90
2017-11-04T12:41:09.274Z,75.43
2017-11-04T12:43:38.949Z,68.33
2017-11-04T12:46:08.218Z,74.03
2017-11-04T12:48:37.846Z,72.20
2017-11-04T12:51:07.155Z,75.27
2017-11-04T12:53:36.419Z,68.40
2017-11-04T12:56:05.917Z,67.67
2017-11-04T12:58:35.354Z,67.90
2017-11-04T13:01:04.918Z,70.17
2017-11-04T13:03:34.210Z,75.33
2017-11-04T13:06:03.498Z,73.10
2017-11-04T13:08:32.770Z,74.57
2017-11-04T13:11:02.062Z,74.70
2017-11-04T13:13:31.314Z,63.73
2017-11-04T13:16:00.590Z,73.73
2017-11-04T13:18:29.890Z,84.13
2017-11-04T13:21:00.018Z,76.40
2017-11-04T13:23:29.277Z,64.07
2017-11-04T13:25:58.537Z,78.83
2017-11-04T13:28:27.819Z,76.93
2017-11-04T13:30:57.235Z,76.13
2017-11-04T13:33:26.437Z,80.93
2017-11-04T13:35:55.723Z,64.43
2017-11-04T13:38:25.213Z,64.60
2017-11-04T13:40:54.503Z,73.07
2017-11-04T13:43:24.682Z,76.00
2017-11-04T13:45:53.927Z,90.10
2017-11-04T13:48:23.968Z,78.97
2017-11-04T13:50:53.223Z,78.87
2017-11-04T13:53:22.487Z,86.23
2017-11-04T13:55:51.902Z,76.70
2017-11-04T13:58:21.202Z,73.33
2017-11-04T14:00:50.612Z,67.10
2017-11-04T14:03:19.862Z,63.80
2017-11-04T14:05:49.133Z,65.60
2017-11-04T14:08:18.473Z,69.93
2017-11-04T14:10:48.614Z,72.43
2017-11-04T14:13:17.847Z,59.53
2017-11-04T14:15:47.302Z,63.73
2017-11-04T14:18:17.451Z,66.83
2017-11-04T14:20:46.730Z,69.80
2017-11-04T14:23:16.768Z,81.57
2017-11-04T14:25:46.044Z,66.20
2017-11-04T14:28:15.440Z,69.97
2017-11-04T14:30:45.494Z,70.00
2017-11-04T14:33:14.954Z,64.10
2017-11-04T14:35:44.231Z,62.93
2017-11-04T14:38:13.510Z,61.97
2017-11-04T14:40:42.760Z,65.27
2017-11-04T14:43:12.051Z,68.40
2017-11-04T14:45:41.319Z,62.50
2017-11-04T14:48:10.600Z,57.67
2017-11-04T14:50:40.630Z,59.03
2017-11-04T14:53:09.937Z,67.17
2017-11-04T14:55:39.275Z,59.60
2017-11-04T14:58:08.556Z,64.60
2017-11-04T15:00:37.843Z,63.60
2017-11-04T15:03:07.926Z,57.17
2017-11-04T15:05:37.178Z,62.53
2017-11-04T15:08:06.422Z,64.27
2017-11-04T15:10:35.713Z,64.43
2017-11-04T15:13:06.591Z,70.27
2017-11-04T15:15:36.633Z,65.67
2017-11-04T15:18:05.897Z,60.13
2017-11-04T15:20:35.220Z,59.67
2017-11-04T15:23:04.463Z,64.00
2017-11-04T15:25:33.712Z,60.80
2017-11-04T15:28:03.001Z,62.70
2017-11-04T15:30:33.053Z,56.50
2017-11-04T15:33:02.429Z,57.43
2017-11-04T15:35:32.490Z,57.87
2017-11-04T15:38:01.776Z,63.00
2017-11-04T15:40:31.056Z,51.77
2017-11-04T15:43:00.450Z,53.50
2017-11-04T15:45:30.473Z,44.43
2017-11-04T15:47:59.754Z,55.13
2017-11-04T15:50:29.005Z,56.53
2017-11-04T15:52:58.406Z,49.30
2017-11-04T15:55:27.775Z,62.67
2017-11-04T15:57:58.118Z,49.50
2017-11-04T16:00:27.602Z,50.43
2017-11-04T16:02:57.635Z,48.00
2017-11-04T16:05:26.884Z,42.63
2017-11-04T16:07:56.328Z,50.53
2017-11-04T16:10:26.345Z,63.53
2017-11-04T16:12:55.618Z,58.97
2017-11-04T16:15:24.860Z,52.00
2017-11-04T16:17:54.950Z,51.87
2017-11-04T16:20:24.194Z,55.53
2017-11-04T16:22:53.456Z,46.23
2017-11-04T16:25:22.752Z,48.70
2017-11-04T16:27:52.782Z,57.57
2017-11-04T16:30:22.319Z,69.00
2017-11-04T16:32:51.586Z,51.23
2017-11-04T16:35:21.015Z,46.17
2017-11-04T16:37:50.243Z,52.67
2017-11-04T16:40:19.485Z,56.30
2017-11-04T16:42:48.758Z,53.70
2017-11-04T16:45:18.043Z,67.30
2017-11-04T16:47:47.324Z,55.57
2017-11-04T16:50:16.958Z,48.27
2017-11-04T16:52:46.207Z,51.07
2017-11-04T16:55:16.243Z,67.33
2017-11-04T16:57:45.561Z,46.80
2017-11-04T17:00:14.799Z,47.37
2017-11-04T17:02:44.082Z,64.50
2017-11-04T17:05:13.351Z,59.20
2017-11-04T17:07:43.463Z,63.40
2017-11-04T17:10:12.867Z,65.77
2017-11-04T17:12:42.135Z,74.57
2017-11-04T17:15:12.901Z,77.87
2017-11-04T17:17:42.310Z,115.00
2017-11-04T17:20:11.569Z,181.50
2017-11-04T17:22:40.834Z,93.93
2017-11-04T17:25:10.134Z,74.47
2017-11-04T17:27:39.413Z,61.23
2017-11-04T17:30:08.675Z,72.03
2017-11-04T17:32:37.942Z,72.17
2017-11-04T17:35:07.223Z,72.57
2017-11-04T17:37:37.212Z,75.20
2017-11-04T17:40:06.490Z,61.63
2017-11-04T17:42:35.798Z,70.53
2017-11-04T17:45:05.063Z,63.80
2017-11-04T17:47:34.310Z,74.23
2017-11-04T17:50:03.799Z,80.70
2017-11-04T17:52:33.039Z,72.13
2017-11-04T17:55:02.315Z,57.23
2017-11-04T17:57:33.090Z,57.57
2017-11-04T18:00:02.472Z,66.23
2017-11-04T18:02:32.515Z,62.27
2017-11-04T18:05:01.755Z,61.10
2017-11-04T18:07:31.030Z,64.50
2017-11-04T18:10:00.306Z,62.97
2017-11-04T18:12:29.815Z,55.80
2017-11-04T18:14:59.836Z,71.00
2017-11-04T18:17:29.241Z,79.07
2017-11-04T18:19:58.498Z,72.47
2017-11-04T18:22:27.884Z,74.40
2017-11-04T18:24:57.158Z,57.03
2017-11-04T18:27:26.444Z,67.77
2017-11-04T18:29:55.799Z,70.73
2017-11-04T18:32:25.069Z,54.73
2017-11-04T18:34:54.481Z,53.83
2017-11-04T18:37:23.745Z,59.63
2017-11-04T18:39:53.013Z,69.00
2017-11-04T18:42:23.798Z,72.47
2017-11-04T18:44:53.166Z,70.10
2017-11-04T18:47:23.205Z,63.67
2017-11-04T18:49:52.463Z,69.40
2017-11-04T18:52:21.722Z,65.57
2017-11-04T18:54:50.983Z,60.93
2017-11-04T18:57:20.258Z,61.43
2017-11-04T18:59:49.507Z,63.73
2017-11-04T19:02:18.939Z,71.03
2017-11-04T19:04:48.208Z,66.40
2017-11-04T19:07:17.466Z,74.53
2017-11-04T19:09:46.890Z,92.23
2017-11-04T19:12:16.950Z,135.23
2017-11-04T19:14:46.341Z,76.53
2017-11-04T19:17:15.588Z,72.40
2017-11-04T19:19:44.933Z,72.30
2017-11-04T19:22:14.932Z,91.60
2017-11-04T19:24:44.198Z,63.03
2017-11-04T19:27:13.483Z,69.13
2017-11-04T19:29:42.730Z,56.93
2017-11-04T19:32:11.990Z,71.53
2017-11-04T19:34:41.254Z,69.50
2017-11-04T19:37:10.509Z,55.10
2017-11-04T19:39:40.048Z,54.93
2017-11-04T19:42:09.303Z,56.87
2017-11-04T19:44:38.563Z,61.20
2017-11-04T19:47:07.840Z,58.20
2017-11-04T19:49:37.103Z,52.10
2017-11-04T19:52:06.382Z,67.17
2017-11-04T19:54:35.833Z,73.07
2017-11-04T19:57:05.083Z,57.90
2017-11-04T19:59:34.381Z,57.53
2017-11-04T20:02:03.644Z,57.10
2017-11-04T20:04:32.950Z,68.00
2017-11-04T20:07:02.267Z,71.33
2017-11-04T20:09:31.649Z,61.70
2017-11-04T20:12:00.919Z,58.40
2017-11-04T20:14:30.178Z,54.87
2017-11-04T20:16:59.550Z,44.77
2017-11-04T20:19:29.610Z,48.20
2017-11-04T20:21:59.073Z,56.13
2017-11-04T20:24:29.186Z,69.60
2017-11-04T20:26:58.435Z,49.63
2017-11-04T20:29:27.801Z,55.87
2017-11-04T20:31:57.038Z,51.87
2017-11-04T20:34:26.566Z,57.53
2017-11-04T20:36:55.798Z,63.87
2017-11-04T20:39:25.816Z,62.63
2017-11-04T20:41:55.112Z,71.30
2017-11-04T20:44:24.343Z,55.77
2017-11-04T20:46:53.822Z,55.97
2017-11-04T20:49:24.764Z,71.23
2017-11-04T20:51:54.798Z,59.63
2017-11-04T20:54:24.826Z,59.43
2017-11-04T20:56:54.062Z,63.03
2017-11-04T20:59:23.317Z,65.63
2017-11-04T21:01:53.026Z,61.67
2017-11-04T21:04:22.233Z,49.07
2017-11-04T21:06:51.713Z,52.57
2017-11-04T21:09:21.830Z,45.40
2017-11-04T21:11:51.895Z,52.93
2017-11-04T21:14:21.231Z,58.07
2017-11-04T21:16:50.530Z,55.17
2017-11-04T21:19:21.278Z,52.00
2017-11-04T21:21:50.554Z,60.07
2017-11-04T21:24:19.802Z,56.43
2017-11-04T21:26:49.807Z,53.17
2017-11-04T21:29:19.079Z,51.73
2017-11-04T21:31:48.377Z,50.20
2017-11-04T21:34:17.703Z,57.17
2017-11-04T21:36:46.938Z,48.33
2017-11-04T21:39:16.979Z,45.17
2017-11-04T21:41:46.237Z,44.93
2017-11-04T21:44:15.499Z,46.37
2017-11-04T21:46:44.772Z,41.00
2017-11-04T21:49:14.258Z,42.27
2017-11-04T21:51:44.282Z,46.23
2017-11-04T21:54:13.534Z,46.63
2017-11-04T21:56:42.780Z,47.20
2017-11-04T21:59:12.808Z,39.10
2017-11-04T22:01:42.076Z,48.80
2017-11-04T22:04:11.315Z,47.03
2017-11-04T22:06:40.714Z,48.20
2017-11-04T22:09:09.981Z,39.83
2017-11-04T22:11:40.041Z,37.60
2017-11-04T22:14:10.047Z,49.60
2017-11-04T22:16:39.319Z,37.60
2017-11-04T22:19:08.610Z,44.27
2017-11-04T22:21:37.923Z,44.67
2017-11-04T22:24:07.168Z,44.60
2017-11-04T22:26:36.419Z,48.77
2017-11-04T22:29:05.687Z,41.30
2017-11-04T22:31:34.950Z,46.83
2017-11-04T22:34:04.204Z,42.17
2017-11-04T22:36:33.458Z,40.70
2017-11-04T22:39:03.476Z,43.83
2017-11-04T22:41:32.719Z,48.73
2017-11-04T22:44:01.981Z,43.27
2017-11-04T22:46:32.000Z,45.23
2017-11-04T22:49:01.391Z,50.77
2017-11-04T22:51:31.518Z,43.60
2017-11-04T22:54:01.535Z,47.13
2017-11-04T22:56:30.783Z,45.40
2017-11-04T22:59:00.018Z,43.93
2017-11-04T23:01:29.276Z,44.03
2017-11-04T23:03:58.507Z,54.33
2017-11-04T23:06:29.300Z,46.13
2017-11-04T23:08:58.690Z,46.93
2017-11-04T23:11:27.954Z,52.43
2017-11-04T23:13:57.227Z,48.07
2017-11-04T23:16:26.461Z,63.23
2017-11-04T23:18:55.729Z,39.87
2017-11-04T23:21:24.994Z,67.07
2017-11-04T23:23:54.228Z,49.43
2017-11-04T23:26:23.489Z,53.97
2017-11-04T23:28:52.878Z,54.80
2017-11-04T23:31:22.997Z,63.37
2017-11-04T23:33:53.015Z,44.20
2017-11-04T23:36:22.287Z,39.07
2017-11-04T23:38:51.531Z,43.57
2017-11-04T23:41:21.595Z,48.03
2017-11-04T23:43:50.862Z,54.10
2017-11-04T23:46:20.307Z,54.43
2017-11-04T23:48:49.578Z,50.83
2017-11-04T23:51:18.815Z,47.63
2017-11-04T23:53:48.082Z,49.07
2017-11-04T23:56:17.330Z,54.03
2017-11-04T23:58:47.118Z,56.67
